createdAt,value
2018-12-13T00:00:31.591Z,48.60
2018-12-13T00:02:59.166Z,43.90
2018-12-13T00:05:26.711Z,46.20
2018-12-13T00:07:54.406Z,53.93
2018-12-13T00:10:22.043Z,50.63
2018-12-13T00:12:49.815Z,51.53
2018-12-13T00:15:19.412Z,53.53
2018-12-13T00:17:46.950Z,46.47
2018-12-13T00:20:14.497Z,47.90
2018-12-13T00:22:42.077Z,41.00
2018-12-13T00:25:09.619Z,35.63
2018-12-13T00:27:37.410Z,41.50
2018-12-13T00:30:05.285Z,39.77
2018-12-13T00:32:32.827Z,41.70
2018-12-13T00:35:00.373Z,39.20
2018-12-13T00:37:27.964Z,33.97
2018-12-13T00:39:55.507Z,37.13
2018-12-13T00:42:23.041Z,37.70
2018-12-13T00:44:50.854Z,38.03
2018-12-13T00:47:18.591Z,38.23
2018-12-13T00:49:46.138Z,40.67
2018-12-13T00:52:13.815Z,37.23
2018-12-13T00:54:41.883Z,37.33
2018-12-13T00:57:09.418Z,38.67
2018-12-13T00:59:37.238Z,39.27
2018-12-13T01:02:04.778Z,32.13
2018-12-13T01:04:32.407Z,30.57
2018-12-13T01:07:00.029Z,32.53
2018-12-13T01:09:27.576Z,32.20
2018-12-13T01:11:55.507Z,30.63
2018-12-13T01:14:23.229Z,33.70
2018-12-13T01:16:51.036Z,31.70
2018-12-13T01:19:18.579Z,32.40
2018-12-13T01:21:46.171Z,31.67
2018-12-13T01:24:13.705Z,31.80
2018-12-13T01:26:41.448Z,31.23
2018-12-13T01:29:09.207Z,30.90
2018-12-13T01:31:36.756Z,30.77
2018-12-13T01:34:04.295Z,31.47
2018-12-13T01:36:31.980Z,29.57
2018-12-13T01:38:59.514Z,30.23
2018-12-13T01:41:27.078Z,30.60
2018-12-13T01:43:54.757Z,38.53
2018-12-13T01:46:22.296Z,37.00
2018-12-13T01:48:49.903Z,34.93
2018-12-13T01:51:17.495Z,36.23
2018-12-13T01:53:45.039Z,33.47
2018-12-13T01:56:12.758Z,34.10
2018-12-13T01:58:40.350Z,32.13
2018-12-13T02:01:07.932Z,34.13
2018-12-13T02:03:35.476Z,34.60
2018-12-13T02:06:03.150Z,34.97
2018-12-13T02:08:31.090Z,33.30
2018-12-13T02:10:58.632Z,39.60
2018-12-13T02:13:26.203Z,35.60
2018-12-13T02:15:54.064Z,30.53
2018-12-13T02:18:21.609Z,30.03
2018-12-13T02:20:49.371Z,33.80
2018-12-13T02:23:17.257Z,40.03
2018-12-13T02:25:44.797Z,34.87
2018-12-13T02:28:12.422Z,33.50
2018-12-13T02:30:39.968Z,33.33
2018-12-13T02:33:07.512Z,31.00
2018-12-13T02:35:35.225Z,33.17
2018-12-13T02:38:02.765Z,31.00
2018-12-13T02:40:30.313Z,32.63
2018-12-13T02:42:57.899Z,36.17
2018-12-13T02:45:25.449Z,30.93
2018-12-13T02:47:52.990Z,30.37
2018-12-13T02:50:20.582Z,29.70
2018-12-13T02:52:48.118Z,29.00
2018-12-13T02:55:15.657Z,28.03
2018-12-13T02:57:43.242Z,27.60
2018-12-13T03:00:10.774Z,30.17
2018-12-13T03:02:38.327Z,29.60
2018-12-13T03:05:05.919Z,28.50
2018-12-13T03:07:33.457Z,27.27
2018-12-13T03:10:01.001Z,28.47
2018-12-13T03:12:28.859Z,27.40
2018-12-13T03:14:56.474Z,29.87
2018-12-13T03:17:24.153Z,30.23
2018-12-13T03:19:51.720Z,28.47
2018-12-13T03:22:19.766Z,31.60
2018-12-13T03:24:47.577Z,31.73
2018-12-13T03:27:15.197Z,32.80
2018-12-13T03:29:42.846Z,30.37
2018-12-13T03:32:10.406Z,30.30
2018-12-13T03:34:38.095Z,29.63
2018-12-13T03:37:06.052Z,29.67
2018-12-13T03:39:33.665Z,29.23
2018-12-13T03:42:01.556Z,25.90
2018-12-13T03:44:29.095Z,24.83
2018-12-13T03:46:56.637Z,25.37
2018-12-13T03:49:24.231Z,25.73
2018-12-13T03:51:51.779Z,26.60
2018-12-13T03:54:19.449Z,31.50
2018-12-13T03:56:47.031Z,38.03
2018-12-13T03:59:14.619Z,42.53
2018-12-13T04:01:42.168Z,25.63
2018-12-13T04:04:09.742Z,26.30
2018-12-13T04:06:37.286Z,26.53
2018-12-13T04:09:06.333Z,23.30
2018-12-13T04:11:33.916Z,21.20
2018-12-13T04:14:01.459Z,19.20
2018-12-13T04:16:29.003Z,20.77
2018-12-13T04:18:56.718Z,20.83
2018-12-13T04:21:24.262Z,19.60
2018-12-13T04:23:51.810Z,20.17
2018-12-13T04:26:19.574Z,20.07
2018-12-13T04:28:47.105Z,19.40
2018-12-13T04:31:14.644Z,18.40
2018-12-13T04:33:42.293Z,19.03
2018-12-13T04:36:09.826Z,18.90
2018-12-13T04:38:37.361Z,20.73
2018-12-13T04:41:05.013Z,20.60
2018-12-13T04:43:32.890Z,17.97
2018-12-13T04:46:00.496Z,17.93
2018-12-13T04:48:28.090Z,18.57
2018-12-13T04:50:55.734Z,20.73
2018-12-13T04:53:23.275Z,17.53
2018-12-13T04:55:50.862Z,16.97
2018-12-13T04:58:18.394Z,19.03
2018-12-13T05:00:46.075Z,19.07
2018-12-13T05:03:13.661Z,21.93
2018-12-13T05:05:41.198Z,19.53
2018-12-13T05:08:08.917Z,20.17
2018-12-13T05:10:50.606Z,19.33
2018-12-13T05:13:18.851Z,20.90
2018-12-13T05:15:46.385Z,18.37
2018-12-13T05:18:13.963Z,19.03
2018-12-13T05:20:41.724Z,18.97
2018-12-13T05:23:10.209Z,19.00
2018-12-13T05:25:37.881Z,19.27
2018-12-13T05:28:05.428Z,18.40
2018-12-13T05:30:32.962Z,19.20
2018-12-13T05:33:00.556Z,19.00
2018-12-13T05:35:28.285Z,19.03
2018-12-13T05:37:56.145Z,19.10
2018-12-13T05:40:23.726Z,20.30
2018-12-13T05:42:51.298Z,22.30
2018-12-13T05:45:18.826Z,20.57
2018-12-13T05:47:46.578Z,21.63
2018-12-13T05:50:14.124Z,21.57
2018-12-13T05:52:41.782Z,22.20
2018-12-13T05:55:09.702Z,23.30
2018-12-13T05:57:37.242Z,20.47
2018-12-13T06:00:06.899Z,18.70
2018-12-13T06:02:34.488Z,20.50
2018-12-13T06:05:02.034Z,22.10
2018-12-13T06:07:29.574Z,21.80
2018-12-13T06:09:57.398Z,19.93
2018-12-13T06:12:24.938Z,19.70
2018-12-13T06:14:52.516Z,20.73
2018-12-13T06:17:20.204Z,23.23
2018-12-13T06:19:48.041Z,33.33
2018-12-13T06:22:15.888Z,30.47
2018-12-13T06:24:43.626Z,30.97
2018-12-13T06:27:11.259Z,27.80
2018-12-13T06:29:41.805Z,27.93
2018-12-13T06:32:08.414Z,43.07
2018-12-13T06:34:35.960Z,23.30
2018-12-13T06:37:03.687Z,19.40
2018-12-13T06:39:31.262Z,19.57
2018-12-13T06:41:58.812Z,22.73
2018-12-13T06:44:26.352Z,22.53
2018-12-13T06:46:53.925Z,26.80
2018-12-13T06:49:21.468Z,29.90
2018-12-13T06:51:49.806Z,31.27
2018-12-13T06:54:17.386Z,31.30
2018-12-13T06:56:44.966Z,29.27
2018-12-13T06:59:12.507Z,28.57
2018-12-13T07:01:40.200Z,30.80
2018-12-13T07:04:07.742Z,32.17
2018-12-13T07:06:35.318Z,35.10
2018-12-13T07:09:04.508Z,45.00
2018-12-13T07:11:32.177Z,38.40
2018-12-13T07:13:59.710Z,34.80
2018-12-13T07:16:27.309Z,37.70
2018-12-13T07:18:54.850Z,44.87
2018-12-13T07:21:22.394Z,54.30
2018-12-13T07:23:50.334Z,59.53
2018-12-13T07:26:17.888Z,55.23
2018-12-13T07:28:45.433Z,50.40
2018-12-13T07:31:13.014Z,44.83
2018-12-13T07:33:40.556Z,36.83
2018-12-13T07:36:08.109Z,33.40
2018-12-13T07:38:35.743Z,30.27
2018-12-13T07:41:03.283Z,29.30
2018-12-13T07:43:30.989Z,32.57
2018-12-13T07:45:58.584Z,33.00
2018-12-13T07:48:26.921Z,35.07
2018-12-13T07:50:54.464Z,37.63
2018-12-13T07:53:22.195Z,39.03
2018-12-13T07:55:49.742Z,40.47
2018-12-13T07:58:17.277Z,39.63
2018-12-13T08:00:44.843Z,35.30
2018-12-13T08:03:12.380Z,35.23
2018-12-13T08:05:40.154Z,34.53
2018-12-13T08:08:07.754Z,34.87
2018-12-13T08:10:35.304Z,50.03
2018-12-13T08:13:02.843Z,36.73
2018-12-13T08:15:30.424Z,36.23
2018-12-13T08:17:57.962Z,35.83
2018-12-13T08:20:25.510Z,35.87
2018-12-13T08:22:53.092Z,36.67
2018-12-13T08:25:20.990Z,36.20
2018-12-13T08:27:48.534Z,35.23
2018-12-13T08:30:16.102Z,38.07
2018-12-13T08:32:43.642Z,37.70
2018-12-13T08:35:11.194Z,40.23
2018-12-13T08:37:38.781Z,37.47
2018-12-13T08:40:06.319Z,35.20
2018-12-13T08:42:33.863Z,34.97
2018-12-13T08:45:01.632Z,34.03
2018-12-13T08:47:29.985Z,39.80
2018-12-13T08:49:57.526Z,47.20
2018-12-13T08:52:25.112Z,39.07
2018-12-13T08:54:52.657Z,40.63
2018-12-13T08:57:20.191Z,30.83
2018-12-13T08:59:47.794Z,31.50
2018-12-13T09:02:16.944Z,32.50
2018-12-13T09:04:44.586Z,33.87
2018-12-13T09:07:12.147Z,29.33
2018-12-13T09:09:39.816Z,32.37
2018-12-13T09:12:07.419Z,32.13
2018-12-13T09:14:34.968Z,32.07
2018-12-13T09:17:02.570Z,30.97
2018-12-13T09:19:30.151Z,32.73
2018-12-13T09:21:57.815Z,30.40
2018-12-13T09:24:25.473Z,30.53
2018-12-13T09:26:53.299Z,30.37
2018-12-13T09:29:20.960Z,29.67
2018-12-13T09:31:48.550Z,32.43
2018-12-13T09:34:16.138Z,35.87
2018-12-13T09:36:44.018Z,34.60
2018-12-13T09:39:12.038Z,29.50
2018-12-13T09:41:39.652Z,27.57
2018-12-13T09:44:09.457Z,30.27
2018-12-13T09:46:37.274Z,30.50
2018-12-13T09:49:04.829Z,33.67
2018-12-13T09:51:32.603Z,32.73
2018-12-13T09:54:00.381Z,29.07
2018-12-13T09:56:28.280Z,27.83
2018-12-13T09:58:55.818Z,29.97
2018-12-13T10:01:23.422Z,30.97
2018-12-13T10:03:50.986Z,32.27
2018-12-13T10:06:18.562Z,32.20
2018-12-13T10:08:46.462Z,30.00
2018-12-13T10:11:14.124Z,29.73
2018-12-13T10:13:41.948Z,30.77
2018-12-13T10:16:09.815Z,26.60
2018-12-13T10:18:37.358Z,29.47
2018-12-13T10:21:04.916Z,28.03
2018-12-13T10:23:32.516Z,28.97
2018-12-13T10:26:00.050Z,30.07
2018-12-13T10:28:27.707Z,29.90
2018-12-13T10:30:55.574Z,32.57
2018-12-13T10:33:23.122Z,33.20
2018-12-13T10:35:50.887Z,30.77
2018-12-13T10:38:18.533Z,33.17
2018-12-13T10:40:46.189Z,37.37
2018-12-13T10:43:13.723Z,39.67
2018-12-13T10:45:41.334Z,40.87
2018-12-13T10:48:08.882Z,44.60
2018-12-13T10:50:36.421Z,53.73
2018-12-13T10:53:04.355Z,39.20
2018-12-13T10:55:31.893Z,36.40
2018-12-13T10:57:59.945Z,37.47
2018-12-13T11:00:33.239Z,37.67
2018-12-13T11:03:25.001Z,41.33
2018-12-13T11:05:59.581Z,38.00
2018-12-13T11:08:27.111Z,36.90
2018-12-13T11:10:54.647Z,34.47
2018-12-13T11:13:22.302Z,32.70
2018-12-13T11:15:49.916Z,31.33
2018-12-13T11:18:17.450Z,34.07
2018-12-13T11:20:45.034Z,36.87
2018-12-13T11:23:12.637Z,38.67
2018-12-13T11:25:40.334Z,32.23
2018-12-13T11:28:19.641Z,24.20
2018-12-13T11:30:47.350Z,22.87
2018-12-13T11:33:14.883Z,24.17
2018-12-13T11:35:42.463Z,26.00
2018-12-13T11:38:10.234Z,24.17
2018-12-13T11:40:37.771Z,22.73
2018-12-13T11:43:05.658Z,21.63
2018-12-13T11:45:33.191Z,20.77
2018-12-13T11:48:00.736Z,20.80
2018-12-13T11:50:28.635Z,23.87
2018-12-13T11:52:56.301Z,107.57
2018-12-13T11:55:40.136Z,32.57
2018-12-13T11:58:07.671Z,24.20
2018-12-13T12:00:35.211Z,32.87
2018-12-13T12:03:02.946Z,75.57
2018-12-13T12:05:30.613Z,40.27
2018-12-13T12:07:58.151Z,43.43
2018-12-13T12:10:25.894Z,33.63
2018-12-13T12:12:53.443Z,31.23
2018-12-13T12:15:21.015Z,43.67
2018-12-13T12:17:48.857Z,122.03
2018-12-13T12:20:16.463Z,73.13
2018-12-13T12:22:44.171Z,48.00
2018-12-13T12:25:11.961Z,45.23
2018-12-13T12:27:39.490Z,44.93
2018-12-13T12:30:07.385Z,47.60
2018-12-13T12:32:35.455Z,45.80
2018-12-13T12:35:03.030Z,53.00
2018-12-13T12:37:30.606Z,97.10
2018-12-13T12:39:58.240Z,56.77
2018-12-13T12:42:25.774Z,50.70
2018-12-13T12:44:53.334Z,63.23
2018-12-13T12:47:21.075Z,97.37
2018-12-13T12:49:48.640Z,61.43
2018-12-13T12:52:16.187Z,65.27
2018-12-13T12:54:43.770Z,71.80
2018-12-13T12:57:11.306Z,60.47
2018-12-13T12:59:38.860Z,46.57
2018-12-13T13:02:06.664Z,63.63
2018-12-13T13:04:34.255Z,55.67
2018-12-13T13:07:01.885Z,90.53
2018-12-13T13:09:29.482Z,59.37
2018-12-13T13:11:57.051Z,50.20
2018-12-13T13:14:24.591Z,80.97
2018-12-13T13:16:52.327Z,53.13
2018-12-13T13:19:19.871Z,47.37
2018-12-13T13:21:47.414Z,43.33
2018-12-13T13:24:14.999Z,43.30
2018-12-13T13:26:42.535Z,55.53
2018-12-13T13:29:10.106Z,69.53
2018-12-13T13:31:37.759Z,68.80
2018-12-13T13:34:05.437Z,84.90
2018-12-13T13:36:32.994Z,90.87
2018-12-13T13:39:00.575Z,60.77
2018-12-13T13:41:28.126Z,80.73
2018-12-13T13:43:55.667Z,83.40
2018-12-13T13:46:23.268Z,74.23
2018-12-13T13:48:50.813Z,71.77
2018-12-13T13:51:18.359Z,79.03
2018-12-13T13:53:45.935Z,54.57
2018-12-13T13:56:13.474Z,62.23
2018-12-13T13:58:41.328Z,62.50
2018-12-13T14:01:08.934Z,68.87
2018-12-13T14:03:37.954Z,58.60
2018-12-13T14:06:05.570Z,61.63
2018-12-13T14:08:33.162Z,56.50
2018-12-13T14:11:01.052Z,54.63
2018-12-13T14:13:28.931Z,41.37
2018-12-13T14:15:56.694Z,105.47
2018-12-13T14:18:24.664Z,110.00
2018-12-13T14:20:52.298Z,151.93
2018-12-13T14:23:20.641Z,105.30
2018-12-13T14:25:48.433Z,140.50
2018-12-13T14:28:16.306Z,109.90
2018-12-13T14:30:43.920Z,108.77
2018-12-13T14:33:11.496Z,97.37
2018-12-13T14:35:39.663Z,87.20
2018-12-13T14:38:07.790Z,82.17
2018-12-13T14:40:35.582Z,86.13
2018-12-13T14:43:03.304Z,86.30
2018-12-13T14:45:30.964Z,92.10
2018-12-13T14:47:58.532Z,95.20
2018-12-13T14:50:26.711Z,106.33
2018-12-13T14:52:54.352Z,103.87
2018-12-13T14:55:21.921Z,119.53
2018-12-13T14:57:49.492Z,117.37
2018-12-13T15:00:17.088Z,96.27
2018-12-13T15:02:44.634Z,120.80
2018-12-13T15:05:12.992Z,106.53
2018-12-13T15:07:40.767Z,98.07
2018-12-13T15:10:08.961Z,176.80
2018-12-13T15:12:37.293Z,116.00
2018-12-13T15:15:05.782Z,91.77
2018-12-13T15:17:33.623Z,188.63
2018-12-13T15:20:01.923Z,145.97
2018-12-13T15:22:30.188Z,145.70
2018-12-13T15:24:58.720Z,212.93
2018-12-13T15:27:27.713Z,219.63
2018-12-13T15:29:56.655Z,215.10
2018-12-13T15:32:25.977Z,137.83
2018-12-13T15:34:54.897Z,123.43
2018-12-13T15:37:25.887Z,112.27
2018-12-13T15:39:57.370Z,113.87
2018-12-13T15:42:26.166Z,138.63
2018-12-13T15:44:56.025Z,120.23
2018-12-13T15:47:24.412Z,152.17
2018-12-13T15:49:55.700Z,202.90
2018-12-13T15:52:24.705Z,237.07
2018-12-13T15:54:54.107Z,133.13
2018-12-13T15:57:22.219Z,196.57
2018-12-13T15:59:50.116Z,249.17
2018-12-13T16:02:19.836Z,197.63
2018-12-13T16:04:49.047Z,137.03
2018-12-13T16:07:16.782Z,197.00
2018-12-13T16:09:44.622Z,184.73
2018-12-13T16:12:15.442Z,150.53
2018-12-13T16:14:46.912Z,106.17
2018-12-13T16:17:17.244Z,85.10
2018-12-13T16:19:44.906Z,80.37
2018-12-13T16:22:13.908Z,96.93
2018-12-13T16:24:42.192Z,108.77
2018-12-13T16:27:10.646Z,91.37
2018-12-13T16:29:38.297Z,86.37
2018-12-13T16:32:05.886Z,82.60
2018-12-13T16:34:33.423Z,98.23
2018-12-13T16:37:01.442Z,101.33
2018-12-13T16:39:29.289Z,96.47
2018-12-13T16:41:56.839Z,107.60
2018-12-13T16:44:26.498Z,167.43
2018-12-13T16:46:54.839Z,191.77
2018-12-13T16:49:25.172Z,121.50
2018-12-13T16:51:54.161Z,142.77
2018-12-13T16:54:22.650Z,160.00
2018-12-13T16:56:51.811Z,222.20
2018-12-13T16:59:19.922Z,114.80
2018-12-13T17:01:49.067Z,111.40
2018-12-13T17:04:16.911Z,188.73
2018-12-13T17:06:44.458Z,81.30
2018-12-13T17:09:12.078Z,212.30
2018-12-13T17:11:39.893Z,123.43
2018-12-13T17:14:07.452Z,84.50
2018-12-13T17:16:35.421Z,87.63
2018-12-13T17:19:02.980Z,92.97
2018-12-13T17:21:30.727Z,64.33
2018-12-13T17:23:58.682Z,69.03
2018-12-13T17:26:26.494Z,75.90
2018-12-13T17:28:54.080Z,103.90
2018-12-13T17:31:21.775Z,90.47
2018-12-13T17:33:51.299Z,80.47
2018-12-13T17:36:19.142Z,87.07
2018-12-13T17:38:46.817Z,95.03
2018-12-13T17:41:14.713Z,161.47
2018-12-13T17:43:42.261Z,99.97
2018-12-13T17:46:09.866Z,86.23
2018-12-13T17:48:37.669Z,84.20
2018-12-13T17:51:05.214Z,88.73
2018-12-13T17:53:32.851Z,84.90
2018-12-13T17:56:00.732Z,77.87
2018-12-13T17:58:28.506Z,77.17
2018-12-13T18:00:56.702Z,74.00
2018-12-13T18:03:25.211Z,74.70
2018-12-13T18:05:52.800Z,69.73
2018-12-13T18:08:22.445Z,75.23
2018-12-13T18:10:50.206Z,70.50
2018-12-13T18:13:19.103Z,70.53
2018-12-13T18:15:47.064Z,73.83
2018-12-13T18:18:14.772Z,77.10
2018-12-13T18:20:43.609Z,75.47
2018-12-13T18:23:11.581Z,83.63
2018-12-13T18:25:41.421Z,95.60
2018-12-13T18:28:09.458Z,74.93
2018-12-13T18:30:37.124Z,74.20
2018-12-13T18:33:04.674Z,70.37
2018-12-13T18:35:33.278Z,69.60
2018-12-13T18:38:01.549Z,71.47
2018-12-13T18:40:29.122Z,72.47
2018-12-13T18:42:57.059Z,75.47
2018-12-13T18:45:25.780Z,70.83
2018-12-13T18:47:53.347Z,73.13
2018-12-13T18:50:21.374Z,71.80
2018-12-13T18:52:50.591Z,72.73
2018-12-13T18:55:18.839Z,72.50
2018-12-13T18:57:46.921Z,69.87
2018-12-13T19:00:15.598Z,68.50
2018-12-13T19:02:43.173Z,82.43
2018-12-13T19:05:12.240Z,78.87
2018-12-13T19:07:42.301Z,80.33
2018-12-13T19:10:11.388Z,84.07
2018-12-13T19:12:41.569Z,87.00
2018-12-13T19:15:10.960Z,83.43
2018-12-13T19:17:40.121Z,77.93
2018-12-13T19:20:08.811Z,78.57
2018-12-13T19:22:38.496Z,76.13
2018-12-13T19:25:08.438Z,75.67
2018-12-13T19:27:37.026Z,74.73
2018-12-13T19:30:06.413Z,74.33
2018-12-13T19:32:35.648Z,75.53
2018-12-13T19:35:04.698Z,76.20
2018-12-13T19:37:32.426Z,75.53
2018-12-13T19:40:00.287Z,70.37
2018-12-13T19:42:28.439Z,80.60
2018-12-13T19:44:57.286Z,77.93
2018-12-13T19:47:24.868Z,80.57
2018-12-13T19:49:52.469Z,78.37
2018-12-13T19:52:20.890Z,82.07
2018-12-13T19:54:48.728Z,107.27
2018-12-13T19:57:18.484Z,90.60
2018-12-13T19:59:47.457Z,104.43
2018-12-13T20:02:15.201Z,139.10
2018-12-13T20:04:44.836Z,115.90
2018-12-13T20:07:13.600Z,87.43
2018-12-13T20:09:41.644Z,87.93
2018-12-13T20:12:11.418Z,93.53
2018-12-13T20:14:40.503Z,105.53
2018-12-13T20:17:10.865Z,120.53
2018-12-13T20:19:39.444Z,117.60
2018-12-13T20:22:07.103Z,120.23
2018-12-13T20:24:34.974Z,201.60
2018-12-13T20:27:02.639Z,129.70
2018-12-13T20:29:30.408Z,100.00
2018-12-13T20:31:58.218Z,106.50
2018-12-13T20:34:25.770Z,109.93
2018-12-13T20:36:53.321Z,94.63
2018-12-13T20:39:20.920Z,100.30
2018-12-13T20:41:48.806Z,97.70
2018-12-13T20:44:16.355Z,102.77
2018-12-13T20:46:44.208Z,91.83
2018-12-13T20:49:12.195Z,86.27
2018-12-13T20:51:39.900Z,79.17
2018-12-13T20:54:07.524Z,78.30
2018-12-13T20:56:35.100Z,75.20
2018-12-13T20:59:02.814Z,72.80
2018-12-13T21:01:30.394Z,78.13
2018-12-13T21:03:57.971Z,73.60
2018-12-13T21:06:25.559Z,63.83
2018-12-13T21:08:53.159Z,69.30
2018-12-13T21:11:21.322Z,71.13
2018-12-13T21:13:49.010Z,71.57
2018-12-13T21:16:16.605Z,86.57
2018-12-13T21:18:44.155Z,102.00
2018-12-13T21:21:11.707Z,73.43
2018-12-13T21:23:40.058Z,67.13
2018-12-13T21:26:07.615Z,92.93
2018-12-13T21:28:35.224Z,101.40
2018-12-13T21:31:04.099Z,93.23
2018-12-13T21:33:31.825Z,74.77
2018-12-13T21:35:59.795Z,76.27
2018-12-13T21:38:27.943Z,78.30
2018-12-13T21:40:55.624Z,74.17
2018-12-13T21:43:23.632Z,77.40
2018-12-13T21:45:51.357Z,89.30
2018-12-13T21:48:19.490Z,82.40
2018-12-13T21:50:47.405Z,77.70
2018-12-13T21:53:15.911Z,84.30
2018-12-13T21:55:43.695Z,83.27
2018-12-13T21:58:11.662Z,81.97
2018-12-13T22:00:39.482Z,85.20
2018-12-13T22:03:07.035Z,76.30
2018-12-13T22:05:34.694Z,81.20
2018-12-13T22:08:04.361Z,81.77
2018-12-13T22:10:32.164Z,81.10
2018-12-13T22:13:00.442Z,83.83
2018-12-13T22:15:28.516Z,85.10
2018-12-13T22:17:56.282Z,84.90
2018-12-13T22:20:23.830Z,78.37
2018-12-13T22:22:51.415Z,80.80
2018-12-13T22:25:19.465Z,82.07
2018-12-13T22:27:47.158Z,86.60
2018-12-13T22:30:15.163Z,88.30
2018-12-13T22:32:42.954Z,98.43
2018-12-13T22:35:10.615Z,90.87
2018-12-13T22:37:38.694Z,92.07
2018-12-13T22:40:06.568Z,96.57
2018-12-13T22:42:34.271Z,82.23
2018-12-13T22:45:01.943Z,80.33
2018-12-13T22:47:29.642Z,93.27
2018-12-13T22:49:57.591Z,109.03
2018-12-13T22:52:25.185Z,102.03
2018-12-13T22:54:52.945Z,104.80
2018-12-13T22:57:20.482Z,88.93
2018-12-13T22:59:49.271Z,75.33
2018-12-13T23:02:16.974Z,71.67
2018-12-13T23:04:44.514Z,78.63
2018-12-13T23:07:12.090Z,91.23
2018-12-13T23:09:39.634Z,93.80
2018-12-13T23:12:07.197Z,90.27
2018-12-13T23:14:35.622Z,90.87
2018-12-13T23:17:03.388Z,85.87
2018-12-13T23:19:30.940Z,85.00
2018-12-13T23:21:58.648Z,84.07
2018-12-13T23:24:26.191Z,75.07
2018-12-13T23:26:53.944Z,80.27
2018-12-13T23:29:21.559Z,82.83
2018-12-13T23:31:49.105Z,84.77
2018-12-13T23:34:16.648Z,87.10
2018-12-13T23:36:44.255Z,81.73
2018-12-13T23:39:12.043Z,80.70
2018-12-13T23:41:39.615Z,81.97
2018-12-13T23:44:07.506Z,79.93
2018-12-13T23:46:35.058Z,79.33
2018-12-13T23:49:02.599Z,78.80
2018-12-13T23:51:30.254Z,81.20
2018-12-13T23:53:57.802Z,102.23
2018-12-13T23:56:25.346Z,92.53
2018-12-13T23:58:53.373Z,83.90
